Time,TemperatureF,DewpointF,PressureIn,WindDirection,WindDirectionDegrees,WindSpeedMPH,WindSpeedGustMPH,Humidity,HourlyPrecipIn,Conditions,Clouds,dailyrainin,SolarRadiationWatts/m^2,SoftwareType,DateUTC
2013-08-23 00:00:00,69.0,66.0,-100.00,WNW,292,4.0,-999.0,90,-99.99,,,-99.99,0.000000,,2013-08-23 04:00:00,
2013-08-23 00:43:00,69.0,66.0,-100.00,WNW,292,4.0,-999.0,90,-99.99,,,-99.99,0.000000,,2013-08-23 04:43:00,
2013-08-23 00:54:00,69.0,66.0,-100.00,WNW,292,4.0,-999.0,90,-99.99,,,-99.99,0.000000,,2013-08-23 04:54:00,
2013-08-23 01:00:00,68.0,65.0,-100.00,WNW,292,4.0,-999.0,92,-99.99,,,-99.99,0.000000,,2013-08-23 05:00:00,
2013-08-23 01:42:00,68.0,65.0,-100.00,WNW,292,4.0,-999.0,92,-99.99,,,-99.99,0.000000,,2013-08-23 05:42:00,
2013-08-23 01:53:00,68.0,65.0,-100.00,WNW,292,4.0,-999.0,92,-99.99,,,-99.99,0.000000,,2013-08-23 05:53:00,
2013-08-23 02:00:00,67.0,65.0,-100.00,SW,225,2.0,-999.0,95,-99.99,,,-99.99,0.000000,,2013-08-23 06:00:00,
2013-08-23 02:42:00,67.0,65.0,-100.00,SW,225,2.0,-999.0,95,-99.99,,,-99.99,0.000000,,2013-08-23 06:42:00,
2013-08-23 02:52:00,67.0,65.0,-100.00,SW,225,2.0,-999.0,95,-99.99,,,-99.99,0.000000,,2013-08-23 06:52:00,
2013-08-23 03:00:00,67.0,66.0,-100.00,South,180,3.0,-999.0,96,-99.99,,,-99.99,0.000000,,2013-08-23 07:00:00,
2013-08-23 03:42:00,67.0,66.0,-100.00,South,180,3.0,-999.0,96,-99.99,,,-99.99,0.000000,,2013-08-23 07:42:00,
2013-08-23 03:53:00,67.0,66.0,-100.00,South,180,3.0,-999.0,96,-99.99,,,-99.99,0.000000,,2013-08-23 07:53:00,
2013-08-23 04:00:00,67.0,66.0,-100.00,ESE,112,3.0,-999.0,97,-99.99,,,-99.99,0.000000,,2013-08-23 08:00:00,
2013-08-23 04:42:00,67.0,66.0,-100.00,ESE,112,3.0,-999.0,97,-99.99,,,-99.99,0.000000,,2013-08-23 08:42:00,
2013-08-23 04:52:00,67.0,66.0,-100.00,ESE,112,3.0,-999.0,97,-99.99,,,-99.99,0.000000,,2013-08-23 08:52:00,
2013-08-23 05:00:00,65.0,64.0,-100.00,SE,135,1.0,-999.0,98,-99.99,,,-99.99,0.000000,,2013-08-23 09:00:00,
2013-08-23 05:43:00,65.0,64.0,-100.00,SE,135,1.0,-999.0,98,-99.99,,,-99.99,0.000000,,2013-08-23 09:43:00,
2013-08-23 05:53:00,65.0,64.0,-100.00,SE,135,1.0,-999.0,98,-99.99,,,-99.99,0.000000,,2013-08-23 09:53:00,
2013-08-23 06:00:00,64.0,64.0,-100.00,East,90,2.0,-999.0,98,-99.99,,,-99.99,0.000000,,2013-08-23 10:00:00,
2013-08-23 06:42:00,64.0,64.0,-100.00,East,90,2.0,-999.0,98,-99.99,,,-99.99,0.000000,,2013-08-23 10:42:00,
2013-08-23 06:53:00,64.0,64.0,-100.00,East,90,2.0,-999.0,98,-99.99,,,-99.99,0.000000,,2013-08-23 10:53:00,
2013-08-23 07:00:00,63.0,62.0,-100.00,NNE,22,4.0,-999.0,98,-99.99,,,-99.99,1.160000,,2013-08-23 11:00:00,
2013-08-23 07:42:00,63.0,62.0,-100.00,NNE,22,4.0,-999.0,98,-99.99,,,-99.99,1.160000,,2013-08-23 11:42:00,
2013-08-23 07:53:00,63.0,62.0,-100.00,NNE,22,4.0,-999.0,98,-99.99,,,-99.99,1.160000,,2013-08-23 11:53:00,
2013-08-23 08:00:00,62.0,61.0,-100.00,NE,45,4.0,-999.0,94,-99.99,,,-99.99,52.200001,,2013-08-23 12:00:00,
2013-08-23 08:42:00,62.0,61.0,-100.00,NE,45,4.0,-999.0,94,-99.99,,,-99.99,52.200001,,2013-08-23 12:42:00,
2013-08-23 08:52:00,62.0,61.0,-100.00,NE,45,4.0,-999.0,94,-99.99,,,-99.99,52.200001,,2013-08-23 12:52:00,
2013-08-23 09:00:00,65.0,61.0,-100.00,NE,45,5.0,-999.0,85,-99.99,,,-99.99,200.679993,,2013-08-23 13:00:00,
2013-08-23 09:42:00,65.0,61.0,-100.00,NE,45,5.0,-999.0,85,-99.99,,,-99.99,200.679993,,2013-08-23 13:42:00,
2013-08-23 09:53:00,65.0,61.0,-100.00,NE,45,5.0,-999.0,85,-99.99,,,-99.99,200.679993,,2013-08-23 13:53:00,
2013-08-23 10:00:00,68.0,60.0,-100.00,NE,45,7.0,-999.0,76,-99.99,,,-99.99,364.239990,,2013-08-23 14:00:00,
2013-08-23 10:42:00,68.0,60.0,-100.00,NE,45,7.0,-999.0,76,-99.99,,,-99.99,364.239990,,2013-08-23 14:42:00,
2013-08-23 10:52:00,68.0,60.0,-100.00,NE,45,7.0,-999.0,76,-99.99,,,-99.99,364.239990,,2013-08-23 14:52:00,
2013-08-23 11:00:00,71.0,59.0,-100.00,NE,45,7.0,-999.0,65,-99.99,,,-99.99,519.679993,,2013-08-23 15:00:00,
2013-08-23 11:44:00,71.0,59.0,-100.00,NE,45,7.0,-999.0,65,-99.99,,,-99.99,519.679993,,2013-08-23 15:44:00,
2013-08-23 11:54:00,71.0,59.0,-100.00,NE,45,7.0,-999.0,65,-99.99,,,-99.99,519.679993,,2013-08-23 15:54:00,
2013-08-23 12:00:00,75.0,59.0,-100.00,NE,45,7.0,-999.0,57,-99.99,,,-99.99,647.280029,,2013-08-23 16:00:00,
2013-08-23 12:42:00,75.0,59.0,-100.00,NE,45,7.0,-999.0,57,-99.99,,,-99.99,647.280029,,2013-08-23 16:42:00,
2013-08-23 12:53:00,75.0,59.0,-100.00,NE,45,7.0,-999.0,57,-99.99,,,-99.99,647.280029,,2013-08-23 16:53:00,
2013-08-23 13:00:00,78.0,57.0,-100.00,NE,45,8.0,-999.0,48,-99.99,,,-99.99,737.760010,,2013-08-23 17:00:00,
2013-08-23 13:43:00,78.0,57.0,-100.00,NE,45,8.0,-999.0,48,-99.99,,,-99.99,737.760010,,2013-08-23 17:43:00,
2013-08-23 13:54:00,78.0,57.0,-100.00,NE,45,8.0,-999.0,48,-99.99,,,-99.99,737.760010,,2013-08-23 17:54:00,
2013-08-23 14:00:00,79.0,54.0,-100.00,ENE,67,7.0,-999.0,41,-99.99,,,-99.99,774.880005,,2013-08-23 18:00:00,
2013-08-23 14:42:00,79.0,54.0,-100.00,ENE,67,7.0,-999.0,41,-99.99,,,-99.99,774.880005,,2013-08-23 18:42:00,
2013-08-23 14:52:00,79.0,54.0,-100.00,ENE,67,7.0,-999.0,41,-99.99,,,-99.99,774.880005,,2013-08-23 18:52:00,
2013-08-23 15:00:00,79.0,53.0,-100.00,ENE,67,7.0,-999.0,40,-99.99,,,-99.99,762.119995,,2013-08-23 19:00:00,
2013-08-23 15:42:00,79.0,53.0,-100.00,ENE,67,7.0,-999.0,40,-99.99,,,-99.99,762.119995,,2013-08-23 19:42:00,
2013-08-23 15:52:00,79.0,53.0,-100.00,ENE,67,7.0,-999.0,40,-99.99,,,-99.99,762.119995,,2013-08-23 19:52:00,
2013-08-23 16:00:00,80.0,54.0,-100.00,ENE,67,7.0,-999.0,40,-99.99,,,-99.99,698.320007,,2013-08-23 20:00:00,
2013-08-23 16:42:00,80.0,54.0,-100.00,ENE,67,7.0,-999.0,40,-99.99,,,-99.99,698.320007,,2013-08-23 20:42:00,
2013-08-23 16:52:00,80.0,54.0,-100.00,ENE,67,7.0,-999.0,40,-99.99,,,-99.99,698.320007,,2013-08-23 20:52:00,
2013-08-23 17:00:00,81.0,53.0,-100.00,ENE,67,6.0,-999.0,39,-99.99,,,-99.99,590.440002,,2013-08-23 21:00:00,
2013-08-23 17:44:00,81.0,53.0,-100.00,ENE,67,6.0,-999.0,39,-99.99,,,-99.99,590.440002,,2013-08-23 21:44:00,
2013-08-23 17:54:00,81.0,53.0,-100.00,ENE,67,6.0,-999.0,39,-99.99,,,-99.99,590.440002,,2013-08-23 21:54:00,
2013-08-23 18:00:00,81.0,53.0,-100.00,East,90,5.0,-999.0,38,-99.99,,,-99.99,445.440002,,2013-08-23 22:00:00,
2013-08-23 18:43:00,81.0,53.0,-100.00,East,90,5.0,-999.0,38,-99.99,,,-99.99,445.440002,,2013-08-23 22:43:00,
2013-08-23 18:54:00,81.0,53.0,-100.00,East,90,5.0,-999.0,38,-99.99,,,-99.99,445.440002,,2013-08-23 22:54:00,
2013-08-23 19:00:00,79.0,54.0,-100.00,East,90,5.0,-999.0,41,-99.99,,,-99.99,193.720001,,2013-08-23 23:00:00,
2013-08-23 19:43:00,79.0,54.0,-100.00,East,90,5.0,-999.0,41,-99.99,,,-99.99,193.720001,,2013-08-23 23:43:00,
2013-08-23 19:54:00,79.0,54.0,-100.00,East,90,5.0,-999.0,41,-99.99,,,-99.99,193.720001,,2013-08-23 23:54:00,
2013-08-23 20:00:00,74.0,57.0,-100.00,NE,45,3.0,-999.0,54,-99.99,,,-99.99,60.320000,,2013-08-24 00:00:00,
2013-08-23 20:43:00,74.0,57.0,-100.00,NE,45,3.0,-999.0,54,-99.99,,,-99.99,60.320000,,2013-08-24 00:43:00,
2013-08-23 20:53:00,74.0,57.0,-100.00,NE,45,3.0,-999.0,54,-99.99,,,-99.99,60.320000,,2013-08-24 00:53:00,
2013-08-23 21:00:00,69.0,57.0,-100.00,ENE,67,1.0,-999.0,67,-99.99,,,-99.99,8.120000,,2013-08-24 01:00:00,
2013-08-23 21:42:00,69.0,57.0,-100.00,ENE,67,1.0,-999.0,67,-99.99,,,-99.99,8.120000,,2013-08-24 01:42:00,
2013-08-23 21:53:00,69.0,57.0,-100.00,ENE,67,1.0,-999.0,67,-99.99,,,-99.99,8.120000,,2013-08-24 01:53:00,
2013-08-23 22:00:00,64.0,56.0,-100.00,SSW,202,0.0,-999.0,74,-99.99,,,-99.99,0.000000,,2013-08-24 02:00:00,
2013-08-23 22:42:00,64.0,56.0,-100.00,SSW,202,0.0,-999.0,74,-99.99,,,-99.99,0.000000,,2013-08-24 02:42:00,
2013-08-23 22:52:00,64.0,56.0,-100.00,SSW,202,0.0,-999.0,74,-99.99,,,-99.99,0.000000,,2013-08-24 02:52:00,
2013-08-23 23:00:00,60.0,56.0,-100.00,South,180,0.0,-999.0,84,-99.99,,,-99.99,0.000000,,2013-08-24 03:00:00,
2013-08-23 23:44:00,60.0,56.0,-100.00,South,180,0.0,-999.0,84,-99.99,,,-99.99,0.000000,,2013-08-24 03:44:00,
2013-08-23 23:55:00,60.0,56.0,-100.00,South,180,0.0,-999.0,84,-99.99,,,-99.99,0.000000,,2013-08-24 03:55:00,